createdAt,value
2023-05-25T00:03:05.071Z,69.34
2023-05-25T00:07:08.348Z,69.31
2023-05-25T00:11:11.588Z,69.23
2023-05-25T00:15:14.649Z,69.22
2023-05-25T00:19:19.102Z,69.20
2023-05-25T00:23:22.399Z,69.37
2023-05-25T00:27:25.427Z,69.37
2023-05-25T00:31:29.807Z,69.47
2023-05-25T00:35:34.357Z,69.48
2023-05-25T00:39:37.391Z,69.63
2023-05-25T00:43:40.362Z,69.53
2023-05-25T00:47:44.342Z,69.90
2023-05-25T00:51:50.478Z,69.54
2023-05-25T00:55:59.759Z,69.46
2023-05-25T01:00:08.903Z,69.57
2023-05-25T01:04:16.409Z,69.44
2023-05-25T01:08:23.498Z,69.55
2023-05-25T01:12:28.974Z,69.54
2023-05-25T01:16:32.928Z,69.52
2023-05-25T01:20:37.723Z,69.58
2023-05-25T01:24:47.565Z,69.23
2023-05-25T01:28:53.951Z,69.62
2023-05-25T01:32:58.221Z,69.34
2023-05-25T01:37:01.680Z,69.48
2023-05-25T01:41:06.149Z,69.48
2023-05-25T01:45:11.609Z,69.98
2023-05-25T01:49:21.976Z,69.45
2023-05-25T01:53:30.239Z,69.90
2023-05-25T01:57:37.588Z,70.15
2023-05-25T02:01:42.230Z,70.44
2023-05-25T02:05:46.980Z,70.51
2023-05-25T02:09:50.061Z,70.47
2023-05-25T02:13:54.657Z,70.67
2023-05-25T02:17:59.963Z,70.71
2023-05-25T02:22:06.457Z,70.86
2023-05-25T02:26:09.513Z,70.83
2023-05-25T02:30:14.666Z,71.01
2023-05-25T02:34:17.674Z,70.91
2023-05-25T02:38:22.061Z,71.08
2023-05-25T02:42:25.155Z,71.00
2023-05-25T02:46:29.615Z,71.34
2023-05-25T02:50:32.666Z,71.50
2023-05-25T02:54:40.344Z,71.37
2023-05-25T02:58:44.893Z,71.11
2023-05-25T03:02:51.536Z,71.49
2023-05-25T03:06:56.335Z,71.35
2023-05-25T03:10:59.324Z,71.60
2023-05-25T03:15:02.972Z,71.68
2023-05-25T03:19:07.507Z,71.64
2023-05-25T03:23:13.116Z,71.53
2023-05-25T03:27:16.497Z,71.69
2023-05-25T03:31:19.913Z,71.68
2023-05-25T03:35:25.037Z,71.94
2023-05-25T03:39:28.176Z,71.87
2023-05-25T03:43:32.070Z,71.99
2023-05-25T03:47:35.536Z,71.98
2023-05-25T03:51:39.963Z,72.30
2023-05-25T03:55:43.755Z,72.48
2023-05-25T03:59:48.191Z,72.53
2023-05-25T04:03:51.330Z,72.64
2023-05-25T04:07:56.209Z,72.13
2023-05-25T04:11:59.563Z,72.70
2023-05-25T04:16:03.198Z,72.68
2023-05-25T04:20:09.934Z,72.25
2023-05-25T04:24:14.888Z,72.81
2023-05-25T04:28:18.701Z,72.71
2023-05-25T04:32:37.561Z,72.82
2023-05-25T04:37:03.376Z,72.74
2023-05-25T04:41:09.622Z,72.79
2023-05-25T04:45:17.627Z,72.47
2023-05-25T04:49:21.509Z,72.54
2023-05-25T04:53:24.879Z,72.19
2023-05-25T04:57:31.587Z,72.42
2023-05-25T05:01:40.877Z,72.17
2023-05-25T05:05:46.683Z,72.06
2023-05-25T05:09:55.917Z,71.80
2023-05-25T05:14:01.229Z,71.54
2023-05-25T05:18:06.355Z,71.60
2023-05-25T05:22:09.936Z,71.17
2023-05-25T05:26:15.473Z,71.01
2023-05-25T05:30:20.260Z,70.93
2023-05-25T05:34:24.594Z,70.22
2023-05-25T05:38:28.178Z,69.96
2023-05-25T05:42:31.337Z,69.45
2023-05-25T05:46:36.391Z,68.99
2023-05-25T05:50:42.085Z,69.03
2023-05-25T05:54:46.461Z,68.26
2023-05-25T05:58:53.608Z,68.02
2023-05-25T06:02:58.620Z,68.06
2023-05-25T06:07:03.832Z,66.90
2023-05-25T06:11:07.331Z,67.15
2023-05-25T06:15:12.980Z,66.63
2023-05-25T06:19:18.466Z,66.17
2023-05-25T06:23:21.629Z,65.97
2023-05-25T06:27:24.849Z,66.25
2023-05-25T06:31:28.644Z,65.63
2023-05-25T06:35:33.256Z,65.60
2023-05-25T06:39:36.574Z,65.02
2023-05-25T06:43:40.018Z,64.07
2023-05-25T06:47:49.667Z,64.14
2023-05-25T06:51:54.462Z,63.79
2023-05-25T06:55:57.675Z,62.81
2023-05-25T07:00:00.854Z,63.42
2023-05-25T07:04:04.014Z,62.53
2023-05-25T07:08:08.650Z,62.63
2023-05-25T07:12:12.020Z,62.48
2023-05-25T07:16:15.237Z,62.28
2023-05-25T07:20:19.171Z,61.76
2023-05-25T07:24:23.741Z,61.25
2023-05-25T07:28:26.947Z,60.75
2023-05-25T07:32:30.179Z,60.96
2023-05-25T07:36:33.376Z,60.66
2023-05-25T07:40:38.005Z,60.66
2023-05-25T07:44:41.140Z,60.05
2023-05-25T07:48:44.263Z,59.83
2023-05-25T07:52:47.891Z,59.74
2023-05-25T07:56:52.526Z,59.46
2023-05-25T08:00:56.339Z,59.44
2023-05-25T08:05:00.019Z,58.73
2023-05-25T08:09:04.932Z,59.38
2023-05-25T08:13:09.657Z,58.64
2023-05-25T08:17:12.905Z,58.76
2023-05-25T08:21:16.033Z,58.21
2023-05-25T08:25:19.251Z,58.61
2023-05-25T08:29:23.824Z,58.11
2023-05-25T08:33:26.903Z,57.78
2023-05-25T08:37:30.631Z,57.99
2023-05-25T08:41:36.007Z,57.07
2023-05-25T08:45:49.361Z,56.33
2023-05-25T08:49:54.954Z,57.06
2023-05-25T08:54:03.431Z,55.67
2023-05-25T08:58:16.248Z,57.14
2023-05-25T09:02:31.424Z,56.89
2023-05-25T09:06:38.639Z,56.67
2023-05-25T09:10:42.329Z,55.05
2023-05-25T09:14:48.075Z,55.39
2023-05-25T09:18:54.140Z,55.38
2023-05-25T09:22:57.323Z,55.55
2023-05-25T09:27:01.093Z,55.21
2023-05-25T09:31:04.241Z,55.48
2023-05-25T09:35:13.081Z,55.11
2023-05-25T09:39:17.171Z,55.59
2023-05-25T09:43:36.349Z,55.55
2023-05-25T09:47:43.512Z,54.75
2023-05-25T09:51:49.183Z,55.37
2023-05-25T09:55:54.459Z,54.77
2023-05-25T09:59:58.216Z,54.02
2023-05-25T10:04:05.248Z,54.40
2023-05-25T10:08:11.695Z,54.90
2023-05-25T10:12:18.836Z,54.24
2023-05-25T10:16:29.703Z,53.75
2023-05-25T10:20:35.288Z,54.14
2023-05-25T10:24:46.632Z,54.12
2023-05-25T10:28:52.519Z,53.91
2023-05-25T10:32:57.120Z,53.89
2023-05-25T10:37:01.698Z,53.96
2023-05-25T10:41:07.166Z,53.14
2023-05-25T10:45:11.465Z,53.24
2023-05-25T10:49:14.501Z,53.19
2023-05-25T10:53:17.571Z,53.58
2023-05-25T10:57:24.103Z,53.19
2023-05-25T11:01:27.321Z,53.50
2023-05-25T11:05:41.577Z,53.30
2023-05-25T11:09:57.264Z,53.46
2023-05-25T11:14:03.446Z,53.25
2023-05-25T11:18:07.092Z,52.82
2023-05-25T11:22:20.479Z,52.49
2023-05-25T11:26:24.820Z,52.88
2023-05-25T11:30:29.618Z,53.04
2023-05-25T11:34:33.256Z,52.59
2023-05-25T11:38:56.327Z,52.36
2023-05-25T11:43:09.270Z,52.21
2023-05-25T11:47:14.589Z,52.14
2023-05-25T11:51:17.665Z,53.15
2023-05-25T11:55:22.578Z,52.64
2023-05-25T11:59:27.703Z,52.23
2023-05-25T12:03:32.934Z,52.21
2023-05-25T12:07:36.727Z,52.64
2023-05-25T12:11:45.681Z,52.41
2023-05-25T12:15:48.909Z,51.81
2023-05-25T12:19:52.202Z,52.08
2023-05-25T12:23:55.874Z,51.14
2023-05-25T12:28:13.139Z,51.64
2023-05-25T12:32:16.533Z,51.46
2023-05-25T12:36:19.676Z,52.37
2023-05-25T12:40:24.687Z,52.03
2023-05-25T12:44:31.549Z,51.86
2023-05-25T12:48:34.646Z,51.91
2023-05-25T12:52:38.954Z,51.68
2023-05-25T12:56:55.016Z,51.90
2023-05-25T13:00:59.560Z,51.52
2023-05-25T13:05:02.680Z,51.72
2023-05-25T13:09:06.166Z,51.16
2023-05-25T13:13:09.152Z,51.05
2023-05-25T13:17:13.877Z,52.04
2023-05-25T13:21:17.168Z,51.36
2023-05-25T13:25:22.221Z,50.50
2023-05-25T13:29:25.705Z,51.03
2023-05-25T13:33:30.172Z,51.49
2023-05-25T13:37:33.966Z,51.58
2023-05-25T13:41:36.986Z,51.19
2023-05-25T13:45:39.991Z,52.42
2023-05-25T13:49:44.350Z,52.04
2023-05-25T13:53:48.941Z,51.94
2023-05-25T13:57:52.926Z,52.01
2023-05-25T14:01:56.607Z,52.48
2023-05-25T14:06:01.067Z,51.88
2023-05-25T14:10:04.606Z,52.64
2023-05-25T14:14:13.855Z,52.05
2023-05-25T14:18:22.961Z,51.96
2023-05-25T14:22:27.993Z,52.29
2023-05-25T14:26:30.976Z,52.57
2023-05-25T14:30:33.918Z,52.82
2023-05-25T14:34:36.915Z,52.48
2023-05-25T14:38:41.237Z,52.37
2023-05-25T14:42:44.213Z,52.96
2023-05-25T14:46:47.227Z,52.69
2023-05-25T14:50:50.434Z,52.40
2023-05-25T14:54:54.749Z,52.86
2023-05-25T14:58:57.668Z,52.86
2023-05-25T15:03:00.845Z,52.20
2023-05-25T15:07:03.904Z,52.77
2023-05-25T15:11:08.620Z,52.33
2023-05-25T15:15:12.302Z,52.69
2023-05-25T15:19:17.729Z,52.21
2023-05-25T15:23:21.186Z,52.89
2023-05-25T15:27:26.260Z,52.93
2023-05-25T15:31:29.249Z,52.95
2023-05-25T15:35:32.525Z,52.77
2023-05-25T15:39:35.632Z,53.24
2023-05-25T15:43:39.954Z,53.44
2023-05-25T15:47:42.923Z,53.12
2023-05-25T15:51:46.238Z,53.07
2023-05-25T15:55:49.384Z,53.23
2023-05-25T15:59:53.715Z,53.66
2023-05-25T16:03:56.694Z,53.14
2023-05-25T16:07:59.684Z,53.64
2023-05-25T16:12:02.795Z,53.93
2023-05-25T16:16:07.973Z,53.57
2023-05-25T16:20:11.454Z,53.70
2023-05-25T16:24:14.524Z,53.76
2023-05-25T16:28:17.616Z,54.34
2023-05-25T16:32:21.946Z,53.69
2023-05-25T16:36:26.670Z,53.49
2023-05-25T16:40:30.211Z,52.88
2023-05-25T16:44:33.133Z,53.01
2023-05-25T16:48:37.437Z,53.45
2023-05-25T16:52:40.690Z,53.37
2023-05-25T16:56:43.645Z,54.27
2023-05-25T17:00:46.606Z,53.98
2023-05-25T17:04:51.010Z,53.87
2023-05-25T17:08:55.671Z,53.92
2023-05-25T17:12:58.665Z,54.16
2023-05-25T17:17:01.652Z,53.88
2023-05-25T17:21:06.211Z,54.09
2023-05-25T17:25:10.004Z,54.19
2023-05-25T17:29:13.065Z,54.46
2023-05-25T17:33:16.204Z,54.61
2023-05-25T17:37:21.262Z,55.30
2023-05-25T17:41:24.335Z,54.90
2023-05-25T17:45:27.590Z,54.48
2023-05-25T17:49:30.600Z,55.33
2023-05-25T17:53:34.880Z,55.07
2023-05-25T17:57:37.912Z,54.98
2023-05-25T18:01:41.790Z,55.42
2023-05-25T18:05:45.102Z,55.30
2023-05-25T18:09:49.728Z,55.81
2023-05-25T18:13:52.684Z,55.56
2023-05-25T18:17:55.725Z,55.43
2023-05-25T18:21:58.941Z,55.96
2023-05-25T18:26:04.640Z,56.23
2023-05-25T18:30:09.051Z,56.73
2023-05-25T18:34:12.146Z,56.76
2023-05-25T18:38:15.189Z,56.79
2023-05-25T18:42:19.496Z,57.36
2023-05-25T18:46:22.964Z,57.21
2023-05-25T18:50:25.933Z,57.51
2023-05-25T18:54:29.664Z,57.63
2023-05-25T18:58:33.985Z,57.55
2023-05-25T19:02:38.611Z,57.83
2023-05-25T19:06:41.665Z,58.14
2023-05-25T19:10:44.693Z,58.36
2023-05-25T19:14:49.104Z,58.73
2023-05-25T19:18:52.037Z,59.24
2023-05-25T19:22:55.164Z,59.60
2023-05-25T19:26:58.113Z,59.69
2023-05-25T19:31:02.548Z,59.93
2023-05-25T19:35:05.971Z,60.28
2023-05-25T19:39:08.942Z,60.48
2023-05-25T19:43:12.008Z,60.82
2023-05-25T19:47:17.483Z,60.86
2023-05-25T19:51:20.618Z,61.25
2023-05-25T19:55:23.906Z,61.52
2023-05-25T19:59:28.083Z,61.64
2023-05-25T20:03:32.964Z,61.99
2023-05-25T20:07:36.277Z,62.39
2023-05-25T20:11:39.377Z,62.81
2023-05-25T20:15:42.420Z,62.98
2023-05-25T20:19:47.976Z,63.04
2023-05-25T20:23:51.714Z,63.29
2023-05-25T20:27:54.653Z,63.23
2023-05-25T20:31:57.728Z,63.38
2023-05-25T20:36:02.112Z,63.64
2023-05-25T20:40:06.716Z,63.95
2023-05-25T20:44:10.107Z,63.74
2023-05-25T20:48:13.109Z,64.12
2023-05-25T20:52:17.494Z,64.35
2023-05-25T20:56:20.468Z,64.46
2023-05-25T21:00:23.765Z,65.03
2023-05-25T21:04:26.761Z,65.16
2023-05-25T21:08:31.969Z,65.32
2023-05-25T21:12:35.540Z,65.71
2023-05-25T21:16:38.648Z,65.95
2023-05-25T21:20:41.830Z,66.26
2023-05-25T21:24:46.427Z,66.05
2023-05-25T21:28:49.406Z,66.03
2023-05-25T21:32:52.817Z,66.15
2023-05-25T21:36:56.137Z,65.96
2023-05-25T21:41:00.496Z,66.15
2023-05-25T21:45:03.726Z,66.31
2023-05-25T21:49:06.746Z,66.62
2023-05-25T21:53:09.717Z,66.76
2023-05-25T21:57:13.994Z,67.18
2023-05-25T22:01:17.118Z,67.03
2023-05-25T22:05:20.157Z,67.36
2023-05-25T22:09:23.115Z,67.26
2023-05-25T22:13:27.409Z,67.50
2023-05-25T22:17:30.449Z,67.30
2023-05-25T22:21:33.452Z,67.02
2023-05-25T22:25:36.618Z,67.08
2023-05-25T22:29:41.130Z,67.21
2023-05-25T22:33:44.267Z,67.03
2023-05-25T22:37:47.435Z,67.06
2023-05-25T22:41:50.405Z,67.08
2023-05-25T22:45:55.101Z,66.85
2023-05-25T22:49:58.038Z,66.92
2023-05-25T22:54:00.997Z,66.93
2023-05-25T22:58:04.023Z,67.00
2023-05-25T23:02:08.508Z,67.00
2023-05-25T23:06:11.607Z,66.91
2023-05-25T23:10:14.618Z,66.92
2023-05-25T23:14:17.621Z,67.06
2023-05-25T23:18:21.934Z,66.98
2023-05-25T23:22:24.920Z,67.03
2023-05-25T23:26:28.105Z,67.00
2023-05-25T23:30:31.104Z,67.16
2023-05-25T23:34:35.841Z,67.07
2023-05-25T23:38:38.804Z,67.23
2023-05-25T23:42:45.513Z,67.09
2023-05-25T23:46:48.585Z,67.11
2023-05-25T23:50:52.960Z,67.38
2023-05-25T23:54:55.955Z,67.13
2023-05-25T23:58:59.010Z,67.15
